sensor_id;sensor_type;location;lat;lon;timestamp;pressure;altitude;pressure_sealevel;temperature;humidity
36192;BME280;22233;42.708;23.360;2022-07-23T00:00:36;95677.88;;;25.60;47.46
36192;BME280;22233;42.708;23.360;2022-07-23T00:03:02;95674.66;;;25.61;47.09
36192;BME280;22233;42.708;23.360;2022-07-23T00:05:27;95688.59;;;25.54;47.49
36192;BME280;22233;42.708;23.360;2022-07-23T00:07:52;95685.44;;;25.56;47.12
36192;BME280;22233;42.708;23.360;2022-07-23T00:10:18;95685.44;;;25.56;46.98
36192;BME280;22233;42.708;23.360;2022-07-23T00:12:43;95687.41;;;25.55;47.00
36192;BME280;22233;42.708;23.360;2022-07-23T00:15:08;95685.47;;;25.41;47.50
36192;BME280;22233;42.708;23.360;2022-07-23T00:17:34;95685.53;;;25.20;47.49
36192;BME280;22233;42.708;23.360;2022-07-23T00:20:00;95691.53;;;25.07;47.80
36192;BME280;22233;42.708;23.360;2022-07-23T00:22:25;95691.91;;;24.99;47.82
36192;BME280;22233;42.708;23.360;2022-07-23T00:24:51;95699.06;;;25.03;47.89
36192;BME280;22233;42.708;23.360;2022-07-23T00:27:16;95687.97;;;24.78;48.45
36192;BME280;22233;42.708;23.360;2022-07-23T00:29:41;95693.16;;;24.76;48.05
36192;BME280;22233;42.708;23.360;2022-07-23T00:32:06;95696.72;;;24.59;48.33
36192;BME280;22233;42.708;23.360;2022-07-23T00:34:32;95696.31;;;24.31;48.88
36192;BME280;22233;42.708;23.360;2022-07-23T00:36:57;95685.94;;;23.89;50.04
36192;BME280;22233;42.708;23.360;2022-07-23T00:39:22;95690.50;;;23.45;50.89
36192;BME280;22233;42.708;23.360;2022-07-23T00:41:48;95698.81;;;23.42;50.91
36192;BME280;22233;42.708;23.360;2022-07-23T00:44:24;95694.88;;;23.46;50.96
36192;BME280;22233;42.708;23.360;2022-07-23T00:46:51;95688.22;;;23.69;50.49
36192;BME280;22233;42.708;23.360;2022-07-23T00:49:19;95690.38;;;23.17;51.62
36192;BME280;22233;42.708;23.360;2022-07-23T00:51:45;95695.38;;;22.97;52.25
36192;BME280;22233;42.708;23.360;2022-07-23T00:54:10;95690.16;;;22.84;52.30
36192;BME280;22233;42.708;23.360;2022-07-23T00:56:35;95687.97;;;22.52;53.09
36192;BME280;22233;42.708;23.360;2022-07-23T00:59:01;95689.66;;;22.68;52.50
36192;BME280;22233;42.708;23.360;2022-07-23T01:01:26;95689.06;;;22.96;51.64
36192;BME280;22233;42.708;23.360;2022-07-23T01:03:51;95684.78;;;23.09;51.22
36192;BME280;22233;42.708;23.360;2022-07-23T01:06:17;95687.19;;;23.11;51.84
36192;BME280;22233;42.708;23.360;2022-07-23T01:08:42;95681.34;;;23.34;51.00
36192;BME280;22233;42.708;23.360;2022-07-23T01:11:07;95684.19;;;23.45;50.36
36192;BME280;22233;42.708;23.360;2022-07-23T01:13:33;95691.78;;;23.66;50.76
36192;BME280;22233;42.708;23.360;2022-07-23T01:15:59;95690.19;;;23.65;50.34
36192;BME280;22233;42.708;23.360;2022-07-23T01:18:24;95685.53;;;23.87;49.69
36192;BME280;22233;42.708;23.360;2022-07-23T01:20:49;95681.97;;;23.93;49.68
36192;BME280;22233;42.708;23.360;2022-07-23T01:23:15;95678.44;;;24.07;49.47
36192;BME280;22233;42.708;23.360;2022-07-23T01:25:47;95683.19;;;24.14;49.21
36192;BME280;22233;42.708;23.360;2022-07-23T01:28:12;95683.19;;;24.14;49.94
36192;BME280;22233;42.708;23.360;2022-07-23T01:30:38;95678.84;;;24.27;48.87
36192;BME280;22233;42.708;23.360;2022-07-23T01:33:03;95680.44;;;24.32;49.36
36192;BME280;22233;42.708;23.360;2022-07-23T01:35:28;95669.72;;;24.38;48.97
36192;BME280;22233;42.708;23.360;2022-07-23T01:37:53;95672.91;;;24.36;48.80
36192;BME280;22233;42.708;23.360;2022-07-23T01:40:19;95672.50;;;24.34;48.83
36192;BME280;22233;42.708;23.360;2022-07-23T01:42:44;95677.25;;;24.41;49.20
36192;BME280;22233;42.708;23.360;2022-07-23T01:45:09;95680.84;;;24.23;49.08
36192;BME280;22233;42.708;23.360;2022-07-23T01:47:35;95673.66;;;24.08;49.22
36192;BME280;22233;42.708;23.360;2022-07-23T01:50:00;95686.75;;;24.15;49.05
36192;BME280;22233;42.708;23.360;2022-07-23T01:52:25;95678.03;;;24.16;49.09
36192;BME280;22233;42.708;23.360;2022-07-23T01:54:50;95676.44;;;24.01;49.34
36192;BME280;22233;42.708;23.360;2022-07-23T01:57:16;95679.16;;;23.79;49.88
36192;BME280;22233;42.708;23.360;2022-07-23T01:59:41;95683.78;;;23.46;51.17
36192;BME280;22233;42.708;23.360;2022-07-23T02:02:06;95675.72;;;23.12;51.99
36192;BME280;22233;42.708;23.360;2022-07-23T02:04:32;95687.44;;;22.88;52.42
36192;BME280;22233;42.708;23.360;2022-07-23T02:07:01;95685.81;;;22.87;52.70
36192;BME280;22233;42.708;23.360;2022-07-23T02:09:26;95683.34;;;22.71;53.43
36192;BME280;22233;42.708;23.360;2022-07-23T02:11:52;95684.56;;;22.77;53.30
36192;BME280;22233;42.708;23.360;2022-07-23T02:14:17;95678.59;;;22.68;53.40
36192;BME280;22233;42.708;23.360;2022-07-23T02:16:42;95687.75;;;22.27;54.88
36192;BME280;22233;42.708;23.360;2022-07-23T02:19:08;95690.66;;;22.42;54.43
36192;BME280;22233;42.708;23.360;2022-07-23T02:21:33;95688.38;;;22.10;55.71
36192;BME280;22233;42.708;23.360;2022-07-23T02:23:58;95691.06;;;22.44;54.81
36192;BME280;22233;42.708;23.360;2022-07-23T02:26:24;95691.59;;;22.16;55.79
36192;BME280;22233;42.708;23.360;2022-07-23T02:28:49;95684.41;;;22.07;55.94
36192;BME280;22233;42.708;23.360;2022-07-23T02:31:14;95690.50;;;21.86;55.89
36192;BME280;22233;42.708;23.360;2022-07-23T02:33:39;95681.22;;;22.09;55.86
36192;BME280;22233;42.708;23.360;2022-07-23T02:36:05;95688.81;;;22.16;55.45
36192;BME280;22233;42.708;23.360;2022-07-23T02:38:30;95687.28;;;22.22;55.23
36192;BME280;22233;42.708;23.360;2022-07-23T02:40:55;95684.69;;;21.99;55.91
36192;BME280;22233;42.708;23.360;2022-07-23T02:43:21;95700.31;;;22.21;55.59
36192;BME280;22233;42.708;23.360;2022-07-23T02:45:46;95698.38;;;22.22;55.59
36192;BME280;22233;42.708;23.360;2022-07-23T02:48:11;95705.00;;;22.13;55.92
36192;BME280;22233;42.708;23.360;2022-07-23T02:50:37;95699.63;;;22.28;55.61
36192;BME280;22233;42.708;23.360;2022-07-23T02:53:03;95702.19;;;22.51;55.09
36192;BME280;22233;42.708;23.360;2022-07-23T02:55:28;95704.50;;;22.42;55.29
36192;BME280;22233;42.708;23.360;2022-07-23T02:57:53;95704.09;;;22.40;55.13
36192;BME280;22233;42.708;23.360;2022-07-23T03:00:19;95704.34;;;22.27;55.74
36192;BME280;22233;42.708;23.360;2022-07-23T03:02:44;95710.72;;;22.31;55.42
36192;BME280;22233;42.708;23.360;2022-07-23T03:05:09;95712.56;;;22.20;55.98
36192;BME280;22233;42.708;23.360;2022-07-23T03:07:35;95711.50;;;22.28;55.65
36192;BME280;22233;42.708;23.360;2022-07-23T03:10:00;95717.41;;;22.27;55.89
36192;BME280;22233;42.708;23.360;2022-07-23T03:12:25;95722.53;;;22.25;55.70
36192;BME280;22233;42.708;23.360;2022-07-23T03:14:50;95725.75;;;22.30;55.58
36192;BME280;22233;42.708;23.360;2022-07-23T03:17:16;95722.19;;;22.30;55.14
36192;BME280;22233;42.708;23.360;2022-07-23T03:19:41;95730.28;;;22.12;55.61
36192;BME280;22233;42.708;23.360;2022-07-23T03:22:07;95729.53;;;22.19;55.18
36192;BME280;22233;42.708;23.360;2022-07-23T03:24:32;95727.25;;;22.24;55.53
36192;BME280;22233;42.708;23.360;2022-07-23T03:27:24;95723.03;;;22.38;55.10
36192;BME280;22233;42.708;23.360;2022-07-23T03:29:51;95729.41;;;22.42;54.71
36192;BME280;22233;42.708;23.360;2022-07-23T03:32:17;95730.94;;;22.36;54.46
36192;BME280;22233;42.708;23.360;2022-07-23T03:34:42;95734.56;;;22.06;54.86
36192;BME280;22233;42.708;23.360;2022-07-23T03:37:07;95737.75;;;22.08;55.07
36192;BME280;22233;42.708;23.360;2022-07-23T03:39:32;95744.38;;;22.00;55.11
36192;BME280;22233;42.708;23.360;2022-07-23T03:41:58;95740.47;;;22.04;55.05
36192;BME280;22233;42.708;23.360;2022-07-23T03:44:23;95731.66;;;21.91;55.71
36192;BME280;22233;42.708;23.360;2022-07-23T03:46:48;95734.38;;;21.88;55.96
36192;BME280;22233;42.708;23.360;2022-07-23T03:49:14;95739.28;;;22.02;55.42
36192;BME280;22233;42.708;23.360;2022-07-23T03:51:39;95735.72;;;22.05;55.21
36192;BME280;22233;42.708;23.360;2022-07-23T03:54:04;95729.72;;;22.33;54.85
36192;BME280;22233;42.708;23.360;2022-07-23T03:56:29;95739.16;;;22.28;54.14
36192;BME280;22233;42.708;23.360;2022-07-23T03:58:55;95738.13;;;22.47;53.77
36192;BME280;22233;42.708;23.360;2022-07-23T04:01:20;95734.91;;;22.38;54.43
36192;BME280;22233;42.708;23.360;2022-07-23T04:03:45;95732.63;;;22.51;53.92
36192;BME280;22233;42.708;23.360;2022-07-23T04:06:11;95736.09;;;22.41;53.89
36192;BME280;22233;42.708;23.360;2022-07-23T04:08:36;95737.88;;;22.60;54.39
36192;BME280;22233;42.708;23.360;2022-07-23T04:11:02;95741.78;;;22.59;54.74
36192;BME280;22233;42.708;23.360;2022-07-23T04:13:27;95746.66;;;22.72;53.80
36192;BME280;22233;42.708;23.360;2022-07-23T04:15:52;95746.22;;;22.67;54.08
36192;BME280;22233;42.708;23.360;2022-07-23T04:18:17;95745.47;;;22.73;53.78
36192;BME280;22233;42.708;23.360;2022-07-23T04:20:43;95743.84;;;22.69;53.76
36192;BME280;22233;42.708;23.360;2022-07-23T04:23:09;95748.63;;;22.72;53.74
36192;BME280;22233;42.708;23.360;2022-07-23T04:25:37;95747.38;;;22.62;53.78
36192;BME280;22233;42.708;23.360;2022-07-23T04:28:02;95745.72;;;22.54;54.38
36192;BME280;22233;42.708;23.360;2022-07-23T04:30:28;95743.66;;;22.44;54.84
36192;BME280;22233;42.708;23.360;2022-07-23T04:32:53;95754.13;;;22.68;54.45
36192;BME280;22233;42.708;23.360;2022-07-23T04:35:18;95748.00;;;22.45;54.95
36192;BME280;22233;42.708;23.360;2022-07-23T04:37:44;95760.53;;;22.31;55.06
36192;BME280;22233;42.708;23.360;2022-07-23T04:40:09;95750.69;;;22.34;55.56
36192;BME280;22233;42.708;23.360;2022-07-23T04:42:35;95746.44;;;22.47;54.64
36192;BME280;22233;42.708;23.360;2022-07-23T04:45:00;95749.34;;;22.65;54.88
36192;BME280;22233;42.708;23.360;2022-07-23T04:47:25;95761.22;;;22.62;54.89
36192;BME280;22233;42.708;23.360;2022-07-23T04:49:51;95756.94;;;22.72;54.95
36192;BME280;22233;42.708;23.360;2022-07-23T04:52:16;95754.59;;;22.74;55.45
36192;BME280;22233;42.708;23.360;2022-07-23T04:54:41;95761.88;;;22.97;54.77
36192;BME280;22233;42.708;23.360;2022-07-23T04:57:06;95762.56;;;22.83;54.80
36192;BME280;22233;42.708;23.360;2022-07-23T04:59:32;95763.38;;;22.87;54.30
36192;BME280;22233;42.708;23.360;2022-07-23T05:01:57;95763.72;;;22.78;55.46
36192;BME280;22233;42.708;23.360;2022-07-23T05:04:22;95760.19;;;22.85;55.27
36192;BME280;22233;42.708;23.360;2022-07-23T05:06:48;95759.22;;;23.11;55.02
36192;BME280;22233;42.708;23.360;2022-07-23T05:09:13;95760.78;;;23.05;55.32
36192;BME280;22233;42.708;23.360;2022-07-23T05:11:38;95759.25;;;23.15;55.38
36192;BME280;22233;42.708;23.360;2022-07-23T05:14:03;95761.66;;;23.16;55.38
36192;BME280;22233;42.708;23.360;2022-07-23T05:16:29;95760.41;;;23.13;55.33
36192;BME280;22233;42.708;23.360;2022-07-23T05:18:54;95767.31;;;23.41;54.96
36192;BME280;22233;42.708;23.360;2022-07-23T05:21:19;95763.78;;;23.44;54.57
36192;BME280;22233;42.708;23.360;2022-07-23T05:23:44;95765.03;;;23.61;53.93
36192;BME280;22233;42.708;23.360;2022-07-23T05:26:10;95765.00;;;23.54;53.90
36192;BME280;22233;42.708;23.360;2022-07-23T05:28:35;95768.59;;;23.55;53.43
36192;BME280;22233;42.708;23.360;2022-07-23T05:31:00;95755.59;;;23.73;53.62
36192;BME280;22233;42.708;23.360;2022-07-23T05:33:26;95762.00;;;23.84;53.26
36192;BME280;22233;42.708;23.360;2022-07-23T05:35:51;95757.94;;;23.67;53.75
36192;BME280;22233;42.708;23.360;2022-07-23T05:38:16;95763.94;;;23.77;52.99
36192;BME280;22233;42.708;23.360;2022-07-23T05:40:41;95764.19;;;23.50;53.52
36192;BME280;22233;42.708;23.360;2022-07-23T05:43:07;95765.09;;;23.72;53.44
36192;BME280;22233;42.708;23.360;2022-07-23T05:45:32;95772.31;;;23.87;52.50
36192;BME280;22233;42.708;23.360;2022-07-23T05:47:57;95766.75;;;23.84;52.80
36192;BME280;22233;42.708;23.360;2022-07-23T05:50:23;95766.78;;;23.98;52.72
36192;BME280;22233;42.708;23.360;2022-07-23T05:52:48;95770.00;;;24.04;52.24
36192;BME280;22233;42.708;23.360;2022-07-23T05:55:13;95762.78;;;23.88;52.41
36192;BME280;22233;42.708;23.360;2022-07-23T05:57:39;95766.03;;;24.08;52.39
36192;BME280;22233;42.708;23.360;2022-07-23T06:00:06;95767.28;;;24.29;52.14
36192;BME280;22233;42.708;23.360;2022-07-23T06:02:31;95759.38;;;24.42;51.29
36192;BME280;22233;42.708;23.360;2022-07-23T06:04:57;95762.19;;;24.63;51.47
36192;BME280;22233;42.708;23.360;2022-07-23T06:07:22;95758.22;;;24.82;50.44
36192;BME280;22233;42.708;23.360;2022-07-23T06:09:47;95753.88;;;24.81;50.48
36192;BME280;22233;42.708;23.360;2022-07-23T06:12:14;95757.84;;;24.87;50.31
36192;BME280;22233;42.708;23.360;2022-07-23T06:14:39;95751.47;;;25.01;49.94
36192;BME280;22233;42.708;23.360;2022-07-23T06:17:04;95751.44;;;25.12;49.57
36192;BME280;22233;42.708;23.360;2022-07-23T06:19:30;95757.00;;;25.05;50.39
36192;BME280;22233;42.708;23.360;2022-07-23T06:21:55;95757.00;;;25.23;49.86
36192;BME280;22233;42.708;23.360;2022-07-23T06:24:20;95761.75;;;25.40;49.04
36192;BME280;22233;42.708;23.360;2022-07-23T06:26:45;95752.25;;;25.27;49.78
36192;BME280;22233;42.708;23.360;2022-07-23T06:29:11;95749.34;;;25.74;48.68
36192;BME280;22233;42.708;23.360;2022-07-23T06:31:36;95742.50;;;25.93;47.89
36192;BME280;22233;42.708;23.360;2022-07-23T06:34:02;95749.41;;;25.56;48.90
36192;BME280;22233;42.708;23.360;2022-07-23T06:36:27;95749.63;;;25.97;47.03
36192;BME280;22233;42.708;23.360;2022-07-23T06:38:52;95749.16;;;26.09;47.03
36192;BME280;22233;42.708;23.360;2022-07-23T06:41:17;95746.34;;;26.20;46.38
36192;BME280;22233;42.708;23.360;2022-07-23T06:43:43;95745.28;;;25.93;46.72
36192;BME280;22233;42.708;23.360;2022-07-23T06:46:08;95752.41;;;26.04;46.03
36192;BME280;22233;42.708;23.360;2022-07-23T06:48:33;95753.06;;;26.30;45.65
36192;BME280;22233;42.708;23.360;2022-07-23T06:51:00;95742.97;;;26.47;45.52
36192;BME280;22233;42.708;23.360;2022-07-23T06:53:26;95746.91;;;26.57;45.52
36192;BME280;22233;42.708;23.360;2022-07-23T06:55:51;95751.38;;;26.40;45.63
36192;BME280;22233;42.708;23.360;2022-07-23T06:58:16;95752.44;;;26.64;44.48
36192;BME280;22233;42.708;23.360;2022-07-23T07:00:43;95745.19;;;26.74;44.40
36192;BME280;22233;42.708;23.360;2022-07-23T07:03:08;95734.53;;;26.61;44.18
36192;BME280;22233;42.708;23.360;2022-07-23T07:05:33;95742.03;;;26.72;44.23
36192;BME280;22233;42.708;23.360;2022-07-23T07:07:59;95742.53;;;27.04;42.90
36192;BME280;22233;42.708;23.360;2022-07-23T07:10:24;95741.56;;;27.25;42.67
36192;BME280;22233;42.708;23.360;2022-07-23T07:12:49;95734.28;;;27.39;43.10
36192;BME280;22233;42.708;23.360;2022-07-23T07:15:15;95730.19;;;27.47;42.90
36192;BME280;22233;42.708;23.360;2022-07-23T07:17:40;95737.09;;;27.69;43.21
36192;BME280;22233;42.708;23.360;2022-07-23T07:20:07;95723.19;;;27.66;42.60
36192;BME280;22233;42.708;23.360;2022-07-23T07:22:32;95723.38;;;27.82;42.31
36192;BME280;22233;42.708;23.360;2022-07-23T07:24:58;95721.13;;;28.04;41.14
36192;BME280;22233;42.708;23.360;2022-07-23T07:27:23;95717.38;;;28.15;40.58
36192;BME280;22233;42.708;23.360;2022-07-23T07:29:48;95710.75;;;28.05;40.86
36192;BME280;22233;42.708;23.360;2022-07-23T07:32:13;95712.56;;;27.88;42.17
36192;BME280;22233;42.708;23.360;2022-07-23T07:34:39;95714.88;;;28.24;41.65
36192;BME280;22233;42.708;23.360;2022-07-23T07:37:04;95707.34;;;28.48;40.29
36192;BME280;22233;42.708;23.360;2022-07-23T07:39:29;95710.03;;;28.55;40.10
36192;BME280;22233;42.708;23.360;2022-07-23T07:41:54;95712.81;;;28.55;39.83
36192;BME280;22233;42.708;23.360;2022-07-23T07:44:20;95705.63;;;28.58;38.85
36192;BME280;22233;42.708;23.360;2022-07-23T07:46:45;95707.63;;;28.81;38.68
36192;BME280;22233;42.708;23.360;2022-07-23T07:49:10;95715.28;;;29.00;39.17
36192;BME280;22233;42.708;23.360;2022-07-23T07:51:36;95708.66;;;28.91;38.51
36192;BME280;22233;42.708;23.360;2022-07-23T07:54:01;95709.41;;;29.18;38.59
36192;BME280;22233;42.708;23.360;2022-07-23T07:56:26;95705.06;;;29.14;38.44
36192;BME280;22233;42.708;23.360;2022-07-23T07:58:52;95703.50;;;29.13;39.51
36192;BME280;22233;42.708;23.360;2022-07-23T08:01:17;95698.88;;;29.02;38.78
36192;BME280;22233;42.708;23.360;2022-07-23T08:03:44;95698.69;;;28.90;39.58
36192;BME280;22233;42.708;23.360;2022-07-23T08:06:09;95707.31;;;29.22;38.71
36192;BME280;22233;42.708;23.360;2022-07-23T08:08:34;95694.72;;;29.34;37.95
36192;BME280;22233;42.708;23.360;2022-07-23T08:11:00;95693.03;;;29.17;38.31
36192;BME280;22233;42.708;23.360;2022-07-23T08:13:25;95697.53;;;29.54;37.50
36192;BME280;22233;42.708;23.360;2022-07-23T08:15:50;95696.16;;;29.42;37.52
36192;BME280;22233;42.708;23.360;2022-07-23T08:18:18;95695.53;;;29.75;37.17
36192;BME280;22233;42.708;23.360;2022-07-23T08:20:43;95695.44;;;29.98;37.82
36192;BME280;22233;42.708;23.360;2022-07-23T08:23:08;95697.09;;;30.12;37.18
36192;BME280;22233;42.708;23.360;2022-07-23T08:25:37;95695.53;;;29.75;38.16
36192;BME280;22233;42.708;23.360;2022-07-23T08:28:04;95694.22;;;30.16;36.37
36192;BME280;22233;42.708;23.360;2022-07-23T08:30:30;95697.09;;;30.12;35.51
36192;BME280;22233;42.708;23.360;2022-07-23T08:37:52;95687.75;;;30.55;35.00
36192;BME280;22233;42.708;23.360;2022-07-23T08:40:18;95693.72;;;30.21;35.36
36192;BME280;22233;42.708;23.360;2022-07-23T08:42:43;95691.75;;;30.54;35.38
36192;BME280;22233;42.708;23.360;2022-07-23T08:45:10;95687.25;;;30.93;35.24
36192;BME280;22233;42.708;23.360;2022-07-23T08:47:37;95686.16;;;31.03;34.38
36192;BME280;22233;42.708;23.360;2022-07-23T08:50:02;95680.38;;;31.40;34.30
36192;BME280;22233;42.708;23.360;2022-07-23T08:52:28;95677.28;;;31.51;34.69
36192;BME280;22233;42.708;23.360;2022-07-23T08:54:55;95680.91;;;31.51;34.30
36192;BME280;22233;42.708;23.360;2022-07-23T08:57:21;95680.78;;;31.55;33.94
36192;BME280;22233;42.708;23.360;2022-07-23T08:59:47;95671.59;;;31.67;34.20
36192;BME280;22233;42.708;23.360;2022-07-23T09:02:12;95669.28;;;31.91;33.73
36192;BME280;22233;42.708;23.360;2022-07-23T09:04:37;95674.81;;;31.95;33.65
36192;BME280;22233;42.708;23.360;2022-07-23T09:07:03;95667.66;;;32.19;34.03
36192;BME280;22233;42.708;23.360;2022-07-23T09:09:28;95670.47;;;32.45;32.34
36192;BME280;22233;42.708;23.360;2022-07-23T09:12:02;95667.53;;;32.49;33.05
36192;BME280;22233;42.708;23.360;2022-07-23T09:17:10;95668.31;;;32.75;31.89
36192;BME280;22233;42.708;23.360;2022-07-23T09:19:35;95664.47;;;32.94;32.09
36192;BME280;22233;42.708;23.360;2022-07-23T09:27:48;95662.97;;;33.37;29.87
36192;BME280;22233;42.708;23.360;2022-07-23T09:30:14;95659.50;;;33.33;30.50
36192;BME280;22233;42.708;23.360;2022-07-23T09:32:39;95666.13;;;33.39;29.41
36192;BME280;22233;42.708;23.360;2022-07-23T09:35:04;95650.00;;;33.40;29.79
36192;BME280;22233;42.708;23.360;2022-07-23T09:37:30;95654.34;;;33.76;29.52
36192;BME280;22233;42.708;23.360;2022-07-23T09:40:02;95644.66;;;33.77;29.69
36192;BME280;22233;42.708;23.360;2022-07-23T09:42:28;95639.41;;;33.66;28.95
36192;BME280;22233;42.708;23.360;2022-07-23T09:44:54;95638.50;;;33.69;29.08
36192;BME280;22233;42.708;23.360;2022-07-23T09:47:21;95642.72;;;33.65;29.86
36192;BME280;22233;42.708;23.360;2022-07-23T09:52:28;95639.31;;;34.01;28.80
36192;BME280;22233;42.708;23.360;2022-07-23T09:55:01;95633.47;;;34.17;28.96
36192;BME280;22233;42.708;23.360;2022-07-23T09:57:27;95635.28;;;34.52;25.85
36192;BME280;22233;42.708;23.360;2022-07-23T09:59:53;95630.88;;;34.41;25.84
36192;BME280;22233;42.708;23.360;2022-07-23T10:02:20;95621.06;;;34.65;26.53
36192;BME280;22233;42.708;23.360;2022-07-23T10:04:46;95629.44;;;34.96;26.58
36192;BME280;22233;42.708;23.360;2022-07-23T10:07:12;95621.91;;;35.11;26.75
36192;BME280;22233;42.708;23.360;2022-07-23T10:09:39;95613.31;;;35.33;25.76
36192;BME280;22233;42.708;23.360;2022-07-23T10:12:12;95614.22;;;35.67;26.67
36192;BME280;22233;42.708;23.360;2022-07-23T10:14:41;95611.09;;;35.74;25.92
36192;BME280;22233;42.708;23.360;2022-07-23T10:17:06;95603.56;;;35.62;26.26
36192;BME280;22233;42.708;23.360;2022-07-23T10:19:32;95603.72;;;35.49;25.53
36192;BME280;22233;42.708;23.360;2022-07-23T10:22:02;95604.19;;;35.57;25.64
36192;BME280;22233;42.708;23.360;2022-07-23T10:27:20;95598.13;;;36.01;22.23
36192;BME280;22233;42.708;23.360;2022-07-23T10:30:03;95597.47;;;36.06;22.20
36192;BME280;22233;42.708;23.360;2022-07-23T10:37:42;95589.91;;;36.12;23.03
36192;BME280;22233;42.708;23.360;2022-07-23T10:40:18;95583.47;;;35.69;23.90
36192;BME280;22233;42.708;23.360;2022-07-23T10:42:47;95584.72;;;36.11;23.15
36192;BME280;22233;42.708;23.360;2022-07-23T10:45:23;95581.22;;;35.83;22.81
36192;BME280;22233;42.708;23.360;2022-07-23T10:47:49;95574.59;;;35.86;22.87
36192;BME280;22233;42.708;23.360;2022-07-23T10:55:40;95565.16;;;36.89;22.61
36192;BME280;22233;42.708;23.360;2022-07-23T10:58:06;95563.09;;;35.56;23.15
36192;BME280;22233;42.708;23.360;2022-07-23T11:00:31;95553.44;;;36.24;22.91
36192;BME280;22233;42.708;23.360;2022-07-23T11:03:01;95547.84;;;36.63;22.47
36192;BME280;22233;42.708;23.360;2022-07-23T11:10:39;95550.97;;;36.07;21.27
36192;BME280;22233;42.708;23.360;2022-07-23T11:16:03;95542.25;;;36.77;21.31
36192;BME280;22233;42.708;23.360;2022-07-23T11:31:57;95527.75;;;37.83;19.68
36192;BME280;22233;42.708;23.360;2022-07-23T11:36:54;95529.88;;;37.14;20.19
36192;BME280;22233;42.708;23.360;2022-07-23T11:39:20;95509.13;;;36.93;20.49
36192;BME280;22233;42.708;23.360;2022-07-23T11:41:45;95522.38;;;37.26;19.87
36192;BME280;22233;42.708;23.360;2022-07-23T11:44:24;95517.97;;;37.54;20.12
36192;BME280;22233;42.708;23.360;2022-07-23T11:46:59;95518.44;;;37.83;20.02
36192;BME280;22233;42.708;23.360;2022-07-23T11:49:25;95516.91;;;37.67;19.97
36192;BME280;22233;42.708;23.360;2022-07-23T11:52:04;95511.38;;;38.08;19.87
36192;BME280;22233;42.708;23.360;2022-07-23T11:54:36;95501.91;;;38.31;19.36
36192;BME280;22233;42.708;23.360;2022-07-23T11:57:02;95499.25;;;38.07;17.64
36192;BME280;22233;42.708;23.360;2022-07-23T11:59:30;95505.03;;;38.33;17.81
36192;BME280;22233;42.708;23.360;2022-07-23T12:01:59;95510.59;;;37.92;18.20
36192;BME280;22233;42.708;23.360;2022-07-23T12:04:28;95510.31;;;38.05;18.21
36192;BME280;22233;42.708;23.360;2022-07-23T12:07:01;95503.41;;;38.47;18.29
36192;BME280;22233;42.708;23.360;2022-07-23T12:09:27;95501.63;;;38.29;18.20
36192;BME280;22233;42.708;23.360;2022-07-23T12:11:59;95496.94;;;38.62;17.84
36192;BME280;22233;42.708;23.360;2022-07-23T12:14:24;95495.28;;;37.54;17.53
36192;BME280;22233;42.708;23.360;2022-07-23T12:17:08;95494.47;;;38.34;18.08
36192;BME280;22233;42.708;23.360;2022-07-23T12:19:33;95493.72;;;38.74;17.14
36192;BME280;22233;42.708;23.360;2022-07-23T12:21:59;95499.56;;;38.91;17.34
36192;BME280;22233;42.708;23.360;2022-07-23T12:24:24;95489.09;;;38.77;18.21
36192;BME280;22233;42.708;23.360;2022-07-23T12:27:11;95498.16;;;38.81;17.74
36192;BME280;22233;42.708;23.360;2022-07-23T12:29:38;95485.25;;;39.27;16.66
36192;BME280;22233;42.708;23.360;2022-07-23T12:32:16;95492.72;;;39.24;16.80
36192;BME280;22233;42.708;23.360;2022-07-23T12:34:42;95475.75;;;39.35;16.71
36192;BME280;22233;42.708;23.360;2022-07-23T12:37:07;95476.72;;;39.53;16.64
36192;BME280;22233;42.708;23.360;2022-07-23T12:39:32;95468.47;;;39.55;16.01
36192;BME280;22233;42.708;23.360;2022-07-23T12:41:58;95466.06;;;39.42;15.46
36192;BME280;22233;42.708;23.360;2022-07-23T12:44:23;95465.78;;;39.78;15.51
36192;BME280;22233;42.708;23.360;2022-07-23T12:46:52;95467.31;;;40.05;15.85
36192;BME280;22233;42.708;23.360;2022-07-23T12:49:27;95469.94;;;39.77;15.98
36192;BME280;22233;42.708;23.360;2022-07-23T12:51:52;95465.69;;;39.98;16.23
36192;BME280;22233;42.708;23.360;2022-07-23T12:54:18;95459.91;;;40.30;15.91
36192;BME280;22233;42.708;23.360;2022-07-23T12:56:51;95459.59;;;40.65;15.77
36192;BME280;22233;42.708;23.360;2022-07-23T12:59:16;95459.59;;;40.65;15.49
36192;BME280;22233;42.708;23.360;2022-07-23T13:01:42;95453.44;;;40.78;14.93
36192;BME280;22233;42.708;23.360;2022-07-23T13:06:34;95450.50;;;40.56;14.70
36192;BME280;22233;42.708;23.360;2022-07-23T13:09:02;95447.13;;;40.63;15.26
36192;BME280;22233;42.708;23.360;2022-07-23T13:11:28;95452.09;;;40.68;15.12
36192;BME280;22233;42.708;23.360;2022-07-23T13:13:53;95451.13;;;40.82;14.25
36192;BME280;22233;42.708;23.360;2022-07-23T13:16:18;95455.78;;;40.85;13.78
36192;BME280;22233;42.708;23.360;2022-07-23T13:18:44;95447.19;;;40.20;14.01
36192;BME280;22233;42.708;23.360;2022-07-23T13:21:09;95448.38;;;40.50;14.39
36192;BME280;22233;42.708;23.360;2022-07-23T13:23:35;95442.06;;;40.84;13.60
36192;BME280;22233;42.708;23.360;2022-07-23T13:26:00;95447.75;;;40.95;14.38
36192;BME280;22233;42.708;23.360;2022-07-23T13:28:25;95446.50;;;41.13;14.15
36192;BME280;22233;42.708;23.360;2022-07-23T13:30:51;95441.06;;;41.15;13.90
36192;BME280;22233;42.708;23.360;2022-07-23T13:33:17;95449.91;;;41.28;14.46
36192;BME280;22233;42.708;23.360;2022-07-23T13:35:42;95440.81;;;41.13;15.25
36192;BME280;22233;42.708;23.360;2022-07-23T13:38:08;95439.03;;;41.27;14.25
36192;BME280;22233;42.708;23.360;2022-07-23T13:40:34;95437.47;;;41.37;13.68